Ashtabula, Ohio
Current Conditions -  °F | °C
As of 8:21 PM on Tuesday 21 Oct 2014 (Local Time) from KHZY Reporting Station
Overcast Overcast  
Wind Chill: 43°   Ceiling: 1100
Heat Index: 47°   Visibility: 9mi
Dew Point: 45°   Wind: 8mph
Humidity: 93%   Direction: 20°NNE
Pressure: 30.04"   Gusts: NA
Location:  41.89°N, 80.79°W
Report Text: KHZY 220021Z AUTO 02007KT 9SM OVC011 08/07 A3004 RMK AO2 RAE11 CIG 007V014 P0001 T00830072
Loading
Personal Weather Stations






























Interactive Weather Map
Tropical Storm Tracking
New forecast layout! Learn more

10-Day Weather Forecast

Advertisements
Track Severe Weather on mobile